sensor_id;sensor_type;location;lat;lon;timestamp;temperature;humidity
666;DHT22;315;48.738;9.126;2023-05-10T00:01:42;13.90;99.90
666;DHT22;315;48.738;9.126;2023-05-10T00:04:08;13.90;99.90
666;DHT22;315;48.738;9.126;2023-05-10T00:06:33;13.90;99.90
666;DHT22;315;48.738;9.126;2023-05-10T00:08:58;13.80;99.90
666;DHT22;315;48.738;9.126;2023-05-10T00:11:24;13.70;99.90
666;DHT22;315;48.738;9.126;2023-05-10T00:13:50;13.70;99.90
666;DHT22;315;48.738;9.126;2023-05-10T00:16:15;13.70;99.90
666;DHT22;315;48.738;9.126;2023-05-10T00:18:41;13.70;99.90
666;DHT22;315;48.738;9.126;2023-05-10T00:21:06;13.60;99.90
666;DHT22;315;48.738;9.126;2023-05-10T00:23:32;13.60;99.90
666;DHT22;315;48.738;9.126;2023-05-10T00:25:57;13.60;99.90
666;DHT22;315;48.738;9.126;2023-05-10T00:28:23;13.60;99.90
666;DHT22;315;48.738;9.126;2023-05-10T00:30:48;13.70;99.90
666;DHT22;315;48.738;9.126;2023-05-10T00:33:14;13.70;99.90
666;DHT22;315;48.738;9.126;2023-05-10T00:35:39;13.70;99.90
666;DHT22;315;48.738;9.126;2023-05-10T00:38:05;13.60;99.90
666;DHT22;315;48.738;9.126;2023-05-10T00:40:31;13.50;99.90
666;DHT22;315;48.738;9.126;2023-05-10T00:42:57;13.40;99.90
666;DHT22;315;48.738;9.126;2023-05-10T00:45:23;13.50;99.90
666;DHT22;315;48.738;9.126;2023-05-10T00:47:49;13.50;99.90
666;DHT22;315;48.738;9.126;2023-05-10T00:50:15;13.40;99.90
666;DHT22;315;48.738;9.126;2023-05-10T00:52:41;13.40;99.90
666;DHT22;315;48.738;9.126;2023-05-10T00:55:10;13.30;99.90
666;DHT22;315;48.738;9.126;2023-05-10T00:57:36;13.30;99.90
666;DHT22;315;48.738;9.126;2023-05-10T01:00:03;13.40;99.90
666;DHT22;315;48.738;9.126;2023-05-10T01:02:28;13.50;99.90
666;DHT22;315;48.738;9.126;2023-05-10T01:04:54;13.30;99.90
666;DHT22;315;48.738;9.126;2023-05-10T01:07:20;13.30;99.90
666;DHT22;315;48.738;9.126;2023-05-10T01:09:46;13.20;99.90
666;DHT22;315;48.738;9.126;2023-05-10T01:12:12;13.20;99.90
666;DHT22;315;48.738;9.126;2023-05-10T01:14:37;13.30;99.90
666;DHT22;315;48.738;9.126;2023-05-10T01:17:04;13.30;99.90
666;DHT22;315;48.738;9.126;2023-05-10T01:19:31;13.30;99.90
666;DHT22;315;48.738;9.126;2023-05-10T01:27:20;13.40;99.90
666;DHT22;315;48.738;9.126;2023-05-10T01:30:15;13.40;99.90
666;DHT22;315;48.738;9.126;2023-05-10T01:38:56;13.30;99.90
666;DHT22;315;48.738;9.126;2023-05-10T01:44:18;13.30;99.90
666;DHT22;315;48.738;9.126;2023-05-10T01:46:50;13.20;99.90
666;DHT22;315;48.738;9.126;2023-05-10T01:49:25;13.20;99.90
666;DHT22;315;48.738;9.126;2023-05-10T01:51:54;13.20;99.90
666;DHT22;315;48.738;9.126;2023-05-10T01:54:23;13.30;99.90
666;DHT22;315;48.738;9.126;2023-05-10T01:56:55;13.40;99.90
666;DHT22;315;48.738;9.126;2023-05-10T01:59:22;13.40;99.90
666;DHT22;315;48.738;9.126;2023-05-10T02:01:48;13.50;99.90
666;DHT22;315;48.738;9.126;2023-05-10T02:04:16;13.50;99.90
666;DHT22;315;48.738;9.126;2023-05-10T02:06:43;13.60;99.90
666;DHT22;315;48.738;9.126;2023-05-10T02:09:11;13.40;99.90
666;DHT22;315;48.738;9.126;2023-05-10T02:11:39;13.50;99.90
666;DHT22;315;48.738;9.126;2023-05-10T02:14:09;13.40;99.90
666;DHT22;315;48.738;9.126;2023-05-10T02:16:35;13.40;99.90
666;DHT22;315;48.738;9.126;2023-05-10T02:19:03;13.40;99.90
666;DHT22;315;48.738;9.126;2023-05-10T02:21:29;13.30;99.90
666;DHT22;315;48.738;9.126;2023-05-10T02:23:57;13.30;99.90
666;DHT22;315;48.738;9.126;2023-05-10T02:26:23;13.30;99.90
666;DHT22;315;48.738;9.126;2023-05-10T02:28:51;13.20;99.90
666;DHT22;315;48.738;9.126;2023-05-10T02:31:17;13.20;99.90
666;DHT22;315;48.738;9.126;2023-05-10T02:33:44;13.20;99.90
666;DHT22;315;48.738;9.126;2023-05-10T02:36:12;13.20;99.90
666;DHT22;315;48.738;9.126;2023-05-10T02:38:38;13.20;99.90
666;DHT22;315;48.738;9.126;2023-05-10T02:41:05;13.20;99.90
666;DHT22;315;48.738;9.126;2023-05-10T02:43:32;13.20;99.90
666;DHT22;315;48.738;9.126;2023-05-10T02:45:58;13.20;99.90
666;DHT22;315;48.738;9.126;2023-05-10T02:48:24;13.10;99.90
666;DHT22;315;48.738;9.126;2023-05-10T02:50:51;13.20;99.90
666;DHT22;315;48.738;9.126;2023-05-10T02:53:33;13.20;99.90
666;DHT22;315;48.738;9.126;2023-05-10T02:56:04;13.20;99.90
666;DHT22;315;48.738;9.126;2023-05-10T02:58:30;13.20;99.90
666;DHT22;315;48.738;9.126;2023-05-10T03:00:55;13.20;99.90
666;DHT22;315;48.738;9.126;2023-05-10T03:03:21;13.20;99.90
666;DHT22;315;48.738;9.126;2023-05-10T03:05:47;13.20;99.90
666;DHT22;315;48.738;9.126;2023-05-10T03:08:12;13.30;99.90
666;DHT22;315;48.738;9.126;2023-05-10T03:16:47;13.20;99.90
666;DHT22;315;48.738;9.126;2023-05-10T03:22:45;13.40;99.90
666;DHT22;315;48.738;9.126;2023-05-10T03:25:12;13.50;99.90
666;DHT22;315;48.738;9.126;2023-05-10T03:27:42;13.50;99.90
666;DHT22;315;48.738;9.126;2023-05-10T03:30:10;13.40;99.90
666;DHT22;315;48.738;9.126;2023-05-10T03:32:37;13.40;99.90
666;DHT22;315;48.738;9.126;2023-05-10T03:35:10;13.40;99.90
666;DHT22;315;48.738;9.126;2023-05-10T03:37:37;13.40;99.90
666;DHT22;315;48.738;9.126;2023-05-10T03:40:03;13.30;99.90
666;DHT22;315;48.738;9.126;2023-05-10T03:42:29;13.40;99.90
666;DHT22;315;48.738;9.126;2023-05-10T03:44:55;13.30;99.90
666;DHT22;315;48.738;9.126;2023-05-10T03:47:20;13.30;99.90
666;DHT22;315;48.738;9.126;2023-05-10T03:49:46;13.30;99.90
666;DHT22;315;48.738;9.126;2023-05-10T03:52:11;13.30;99.90
666;DHT22;315;48.738;9.126;2023-05-10T03:54:37;13.30;99.90
666;DHT22;315;48.738;9.126;2023-05-10T03:57:03;13.30;99.90
666;DHT22;315;48.738;9.126;2023-05-10T03:59:29;13.20;99.90
666;DHT22;315;48.738;9.126;2023-05-10T04:01:55;13.20;99.90
666;DHT22;315;48.738;9.126;2023-05-10T04:04:20;13.10;99.90
666;DHT22;315;48.738;9.126;2023-05-10T04:06:47;13.00;99.90
666;DHT22;315;48.738;9.126;2023-05-10T04:09:12;12.90;99.90
666;DHT22;315;48.738;9.126;2023-05-10T04:11:38;12.80;99.90
666;DHT22;315;48.738;9.126;2023-05-10T04:14:03;12.80;99.90
666;DHT22;315;48.738;9.126;2023-05-10T04:16:29;12.70;99.90
666;DHT22;315;48.738;9.126;2023-05-10T04:18:54;12.70;99.90
666;DHT22;315;48.738;9.126;2023-05-10T04:21:20;12.70;99.90
666;DHT22;315;48.738;9.126;2023-05-10T04:23:45;12.70;99.90
666;DHT22;315;48.738;9.126;2023-05-10T04:26:11;12.60;99.90
666;DHT22;315;48.738;9.126;2023-05-10T04:28:37;12.60;99.90
666;DHT22;315;48.738;9.126;2023-05-10T04:31:04;12.70;99.90
666;DHT22;315;48.738;9.126;2023-05-10T04:33:30;12.70;99.90
666;DHT22;315;48.738;9.126;2023-05-10T04:35:56;12.70;99.90
666;DHT22;315;48.738;9.126;2023-05-10T04:38:22;12.70;99.90
666;DHT22;315;48.738;9.126;2023-05-10T04:40:47;12.70;99.90
666;DHT22;315;48.738;9.126;2023-05-10T04:43:13;12.80;99.90
666;DHT22;315;48.738;9.126;2023-05-10T04:45:38;12.80;99.90
666;DHT22;315;48.738;9.126;2023-05-10T04:48:04;12.70;99.90
666;DHT22;315;48.738;9.126;2023-05-10T04:50:30;12.80;99.90
666;DHT22;315;48.738;9.126;2023-05-10T04:52:55;12.80;99.90
666;DHT22;315;48.738;9.126;2023-05-10T04:55:21;12.90;99.90
666;DHT22;315;48.738;9.126;2023-05-10T04:57:46;12.90;99.90
666;DHT22;315;48.738;9.126;2023-05-10T05:00:12;12.90;99.90
666;DHT22;315;48.738;9.126;2023-05-10T05:02:38;12.90;99.90
666;DHT22;315;48.738;9.126;2023-05-10T05:05:04;12.80;99.90
666;DHT22;315;48.738;9.126;2023-05-10T05:07:30;12.90;99.90
666;DHT22;315;48.738;9.126;2023-05-10T05:09:56;12.90;99.90
666;DHT22;315;48.738;9.126;2023-05-10T05:12:21;12.90;99.90
666;DHT22;315;48.738;9.126;2023-05-10T05:14:47;13.00;99.90
666;DHT22;315;48.738;9.126;2023-05-10T05:17:12;13.00;99.90
666;DHT22;315;48.738;9.126;2023-05-10T05:19:38;13.10;99.90
666;DHT22;315;48.738;9.126;2023-05-10T05:22:03;13.10;99.90
666;DHT22;315;48.738;9.126;2023-05-10T05:24:35;13.10;99.90
666;DHT22;315;48.738;9.126;2023-05-10T05:27:01;13.30;99.90
666;DHT22;315;48.738;9.126;2023-05-10T05:29:27;13.30;99.90
666;DHT22;315;48.738;9.126;2023-05-10T05:31:52;13.40;99.90
666;DHT22;315;48.738;9.126;2023-05-10T05:34:18;13.50;99.90
666;DHT22;315;48.738;9.126;2023-05-10T05:36:45;13.50;99.90
666;DHT22;315;48.738;9.126;2023-05-10T05:39:11;13.70;99.90
666;DHT22;315;48.738;9.126;2023-05-10T05:41:36;13.70;99.90
666;DHT22;315;48.738;9.126;2023-05-10T05:44:02;13.70;99.90
666;DHT22;315;48.738;9.126;2023-05-10T05:46:27;13.70;99.90
666;DHT22;315;48.738;9.126;2023-05-10T05:48:53;13.70;99.90
666;DHT22;315;48.738;9.126;2023-05-10T05:51:18;13.70;99.90
666;DHT22;315;48.738;9.126;2023-05-10T05:53:44;13.70;99.90
666;DHT22;315;48.738;9.126;2023-05-10T05:56:09;13.70;99.90
666;DHT22;315;48.738;9.126;2023-05-10T05:58:35;13.70;99.90
666;DHT22;315;48.738;9.126;2023-05-10T06:01:00;13.80;99.90
666;DHT22;315;48.738;9.126;2023-05-10T06:03:26;13.80;99.90
666;DHT22;315;48.738;9.126;2023-05-10T06:05:52;13.90;99.90
666;DHT22;315;48.738;9.126;2023-05-10T06:08:17;13.90;99.90
666;DHT22;315;48.738;9.126;2023-05-10T06:10:43;13.90;99.90
666;DHT22;315;48.738;9.126;2023-05-10T06:13:08;14.00;99.90
666;DHT22;315;48.738;9.126;2023-05-10T06:15:34;14.10;99.90
666;DHT22;315;48.738;9.126;2023-05-10T06:18:00;14.10;99.90
666;DHT22;315;48.738;9.126;2023-05-10T06:20:25;14.20;99.90
666;DHT22;315;48.738;9.126;2023-05-10T06:22:51;14.30;99.90
666;DHT22;315;48.738;9.126;2023-05-10T06:25:16;14.40;99.90
666;DHT22;315;48.738;9.126;2023-05-10T06:27:43;14.40;99.90
666;DHT22;315;48.738;9.126;2023-05-10T06:30:09;14.40;99.90
666;DHT22;315;48.738;9.126;2023-05-10T06:32:35;14.50;99.90
666;DHT22;315;48.738;9.126;2023-05-10T06:35:01;14.50;99.90
666;DHT22;315;48.738;9.126;2023-05-10T06:37:26;14.50;99.90
666;DHT22;315;48.738;9.126;2023-05-10T06:39:51;14.50;99.90
666;DHT22;315;48.738;9.126;2023-05-10T06:42:17;14.50;99.90
666;DHT22;315;48.738;9.126;2023-05-10T06:44:43;14.50;99.90
666;DHT22;315;48.738;9.126;2023-05-10T06:47:08;14.50;99.90
666;DHT22;315;48.738;9.126;2023-05-10T06:49:34;14.50;99.90
666;DHT22;315;48.738;9.126;2023-05-10T06:52:00;14.60;99.90
666;DHT22;315;48.738;9.126;2023-05-10T06:54:25;14.60;99.90
666;DHT22;315;48.738;9.126;2023-05-10T06:56:51;14.50;99.90
666;DHT22;315;48.738;9.126;2023-05-10T06:59:17;14.50;99.90
666;DHT22;315;48.738;9.126;2023-05-10T07:01:44;14.50;99.90
666;DHT22;315;48.738;9.126;2023-05-10T07:04:09;14.60;99.90
666;DHT22;315;48.738;9.126;2023-05-10T07:06:35;14.60;99.90
666;DHT22;315;48.738;9.126;2023-05-10T07:09:01;14.70;99.90
666;DHT22;315;48.738;9.126;2023-05-10T07:11:26;14.70;99.90
666;DHT22;315;48.738;9.126;2023-05-10T07:13:52;14.70;99.90
666;DHT22;315;48.738;9.126;2023-05-10T07:16:17;14.60;99.90
666;DHT22;315;48.738;9.126;2023-05-10T07:18:43;14.60;99.90
666;DHT22;315;48.738;9.126;2023-05-10T07:21:08;14.80;99.90
666;DHT22;315;48.738;9.126;2023-05-10T07:23:34;14.90;99.90
666;DHT22;315;48.738;9.126;2023-05-10T07:25:59;15.10;99.90
666;DHT22;315;48.738;9.126;2023-05-10T07:28:25;15.20;99.90
666;DHT22;315;48.738;9.126;2023-05-10T07:30:51;15.30;99.90
666;DHT22;315;48.738;9.126;2023-05-10T07:33:16;15.30;99.90
666;DHT22;315;48.738;9.126;2023-05-10T07:35:43;15.40;99.90
666;DHT22;315;48.738;9.126;2023-05-10T07:38:08;15.50;99.90
666;DHT22;315;48.738;9.126;2023-05-10T07:40:36;15.50;99.90
666;DHT22;315;48.738;9.126;2023-05-10T07:43:01;15.60;99.90
666;DHT22;315;48.738;9.126;2023-05-10T07:45:27;15.50;99.90
666;DHT22;315;48.738;9.126;2023-05-10T07:47:53;15.50;99.90
666;DHT22;315;48.738;9.126;2023-05-10T07:50:18;15.50;99.90
666;DHT22;315;48.738;9.126;2023-05-10T07:52:44;15.60;99.90
666;DHT22;315;48.738;9.126;2023-05-10T07:55:10;15.60;99.90
666;DHT22;315;48.738;9.126;2023-05-10T07:57:35;15.50;99.90
666;DHT22;315;48.738;9.126;2023-05-10T08:00:02;15.50;99.90
666;DHT22;315;48.738;9.126;2023-05-10T08:02:27;15.50;99.90
666;DHT22;315;48.738;9.126;2023-05-10T08:04:53;15.40;99.90
666;DHT22;315;48.738;9.126;2023-05-10T08:07:18;15.40;99.90
666;DHT22;315;48.738;9.126;2023-05-10T08:09:44;15.40;99.90
666;DHT22;315;48.738;9.126;2023-05-10T08:12:09;15.60;99.90
666;DHT22;315;48.738;9.126;2023-05-10T08:14:35;15.80;99.90
666;DHT22;315;48.738;9.126;2023-05-10T08:17:04;16.00;99.90
666;DHT22;315;48.738;9.126;2023-05-10T08:19:29;16.10;99.90
666;DHT22;315;48.738;9.126;2023-05-10T08:21:55;16.20;99.90
666;DHT22;315;48.738;9.126;2023-05-10T08:24:21;16.20;99.90
666;DHT22;315;48.738;9.126;2023-05-10T08:26:47;16.20;99.90
666;DHT22;315;48.738;9.126;2023-05-10T08:29:13;16.20;99.90
666;DHT22;315;48.738;9.126;2023-05-10T08:31:39;16.10;99.90
666;DHT22;315;48.738;9.126;2023-05-10T08:34:04;16.00;99.90
666;DHT22;315;48.738;9.126;2023-05-10T08:36:30;16.10;99.90
666;DHT22;315;48.738;9.126;2023-05-10T08:38:57;16.20;99.90
666;DHT22;315;48.738;9.126;2023-05-10T08:41:23;16.60;99.90
666;DHT22;315;48.738;9.126;2023-05-10T08:43:52;16.80;99.90
666;DHT22;315;48.738;9.126;2023-05-10T08:46:19;16.80;99.90
666;DHT22;315;48.738;9.126;2023-05-10T08:48:46;16.90;99.90
666;DHT22;315;48.738;9.126;2023-05-10T08:51:18;16.80;99.90
666;DHT22;315;48.738;9.126;2023-05-10T08:53:45;17.00;99.90
666;DHT22;315;48.738;9.126;2023-05-10T08:56:11;17.00;99.90
666;DHT22;315;48.738;9.126;2023-05-10T08:58:37;16.80;99.90
666;DHT22;315;48.738;9.126;2023-05-10T09:01:03;17.00;99.90
666;DHT22;315;48.738;9.126;2023-05-10T09:03:30;16.80;99.90
666;DHT22;315;48.738;9.126;2023-05-10T09:05:56;16.80;99.90
666;DHT22;315;48.738;9.126;2023-05-10T09:08:23;16.70;99.90
666;DHT22;315;48.738;9.126;2023-05-10T09:10:52;17.10;99.90
666;DHT22;315;48.738;9.126;2023-05-10T09:13:19;17.20;99.90
666;DHT22;315;48.738;9.126;2023-05-10T09:15:45;17.40;99.90
666;DHT22;315;48.738;9.126;2023-05-10T09:18:11;17.70;99.90
666;DHT22;315;48.738;9.126;2023-05-10T09:20:37;17.40;99.90
666;DHT22;315;48.738;9.126;2023-05-10T09:23:02;17.10;99.90
666;DHT22;315;48.738;9.126;2023-05-10T09:25:28;16.80;99.90
666;DHT22;315;48.738;9.126;2023-05-10T09:27:53;16.50;99.90
666;DHT22;315;48.738;9.126;2023-05-10T09:30:27;16.40;99.90
666;DHT22;315;48.738;9.126;2023-05-10T09:32:54;16.30;99.90
666;DHT22;315;48.738;9.126;2023-05-10T09:35:22;16.30;99.90
666;DHT22;315;48.738;9.126;2023-05-10T09:37:50;16.30;99.90
666;DHT22;315;48.738;9.126;2023-05-10T09:40:18;16.50;99.90
666;DHT22;315;48.738;9.126;2023-05-10T09:43:00;16.90;99.90
666;DHT22;315;48.738;9.126;2023-05-10T09:45:30;17.40;99.90
666;DHT22;315;48.738;9.126;2023-05-10T09:47:57;17.80;99.90
666;DHT22;315;48.738;9.126;2023-05-10T09:50:24;18.10;99.90
666;DHT22;315;48.738;9.126;2023-05-10T09:53:00;18.10;99.90
666;DHT22;315;48.738;9.126;2023-05-10T09:55:44;18.00;99.90
666;DHT22;315;48.738;9.126;2023-05-10T09:58:11;18.20;99.90
666;DHT22;315;48.738;9.126;2023-05-10T10:00:39;18.00;99.90
666;DHT22;315;48.738;9.126;2023-05-10T10:03:06;17.90;99.90
666;DHT22;315;48.738;9.126;2023-05-10T10:05:33;18.00;99.90
666;DHT22;315;48.738;9.126;2023-05-10T10:08:00;18.10;99.90
666;DHT22;315;48.738;9.126;2023-05-10T10:10:27;18.50;99.90
666;DHT22;315;48.738;9.126;2023-05-10T10:12:53;18.70;99.90
666;DHT22;315;48.738;9.126;2023-05-10T10:15:21;18.60;99.90
666;DHT22;315;48.738;9.126;2023-05-10T10:17:46;18.30;99.90
666;DHT22;315;48.738;9.126;2023-05-10T10:20:13;18.20;99.90
666;DHT22;315;48.738;9.126;2023-05-10T10:22:39;18.00;99.90
666;DHT22;315;48.738;9.126;2023-05-10T10:25:05;17.90;99.90
666;DHT22;315;48.738;9.126;2023-05-10T10:27:49;18.00;99.90
666;DHT22;315;48.738;9.126;2023-05-10T10:30:43;18.30;99.90
666;DHT22;315;48.738;9.126;2023-05-10T10:35:58;19.60;99.90
666;DHT22;315;48.738;9.126;2023-05-10T10:38:24;19.60;99.90
666;DHT22;315;48.738;9.126;2023-05-10T10:41:02;20.30;99.90
666;DHT22;315;48.738;9.126;2023-05-10T10:43:28;20.00;99.90
666;DHT22;315;48.738;9.126;2023-05-10T10:46:16;20.60;99.90
666;DHT22;315;48.738;9.126;2023-05-10T10:48:50;21.20;99.90
666;DHT22;315;48.738;9.126;2023-05-10T10:51:36;20.70;99.90
666;DHT22;315;48.738;9.126;2023-05-10T10:54:09;20.00;99.90
666;DHT22;315;48.738;9.126;2023-05-10T10:56:35;19.60;99.90
666;DHT22;315;48.738;9.126;2023-05-10T10:59:01;18.80;99.90
666;DHT22;315;48.738;9.126;2023-05-10T11:01:33;18.30;99.90
666;DHT22;315;48.738;9.126;2023-05-10T11:06:31;18.00;99.90
666;DHT22;315;48.738;9.126;2023-05-10T11:09:05;17.80;99.90
666;DHT22;315;48.738;9.126;2023-05-10T11:11:31;17.80;99.90
666;DHT22;315;48.738;9.126;2023-05-10T11:14:03;18.80;99.90
666;DHT22;315;48.738;9.126;2023-05-10T11:16:43;18.80;99.90
666;DHT22;315;48.738;9.126;2023-05-10T11:19:11;18.90;99.90
666;DHT22;315;48.738;9.126;2023-05-10T11:21:51;18.30;99.90
666;DHT22;315;48.738;9.126;2023-05-10T11:24:19;17.90;99.90
666;DHT22;315;48.738;9.126;2023-05-10T11:26:45;17.30;99.90
666;DHT22;315;48.738;9.126;2023-05-10T11:29:13;17.00;99.90
666;DHT22;315;48.738;9.126;2023-05-10T11:31:45;17.10;99.90
666;DHT22;315;48.738;9.126;2023-05-10T11:34:22;17.00;99.90
666;DHT22;315;48.738;9.126;2023-05-10T11:36:51;16.70;99.90
666;DHT22;315;48.738;9.126;2023-05-10T11:39:19;16.80;99.90
666;DHT22;315;48.738;9.126;2023-05-10T11:41:48;16.90;99.90
666;DHT22;315;48.738;9.126;2023-05-10T11:44:13;17.00;99.90
666;DHT22;315;48.738;9.126;2023-05-10T11:46:39;17.10;99.90
666;DHT22;315;48.738;9.126;2023-05-10T11:49:07;17.30;99.90
666;DHT22;315;48.738;9.126;2023-05-10T11:51:36;17.20;99.90
666;DHT22;315;48.738;9.126;2023-05-10T11:54:09;16.90;99.90
666;DHT22;315;48.738;9.126;2023-05-10T11:56:36;16.70;99.90
666;DHT22;315;48.738;9.126;2023-05-10T11:59:01;16.80;99.90
666;DHT22;315;48.738;9.126;2023-05-10T12:01:28;17.10;99.90
666;DHT22;315;48.738;9.126;2023-05-10T12:03:55;17.70;99.90
666;DHT22;315;48.738;9.126;2023-05-10T12:06:26;17.80;99.90
666;DHT22;315;48.738;9.126;2023-05-10T12:08:52;18.10;99.90
666;DHT22;315;48.738;9.126;2023-05-10T12:11:18;18.60;99.90
666;DHT22;315;48.738;9.126;2023-05-10T12:13:46;19.40;99.90
666;DHT22;315;48.738;9.126;2023-05-10T12:16:23;20.30;99.90
666;DHT22;315;48.738;9.126;2023-05-10T12:18:49;20.20;99.90
666;DHT22;315;48.738;9.126;2023-05-10T12:21:16;19.70;99.90
666;DHT22;315;48.738;9.126;2023-05-10T12:23:42;19.00;99.90
666;DHT22;315;48.738;9.126;2023-05-10T12:26:10;18.50;99.90
666;DHT22;315;48.738;9.126;2023-05-10T12:28:37;18.50;99.90
666;DHT22;315;48.738;9.126;2023-05-10T12:31:02;18.50;99.90
666;DHT22;315;48.738;9.126;2023-05-10T12:33:38;18.50;99.90
666;DHT22;315;48.738;9.126;2023-05-10T12:36:05;18.90;99.90
666;DHT22;315;48.738;9.126;2023-05-10T12:38:42;18.70;99.90
666;DHT22;315;48.738;9.126;2023-05-10T12:41:16;18.40;99.90
666;DHT22;315;48.738;9.126;2023-05-10T12:43:42;18.00;99.90
666;DHT22;315;48.738;9.126;2023-05-10T12:46:08;17.60;99.90
666;DHT22;315;48.738;9.126;2023-05-10T12:48:35;17.40;99.90
666;DHT22;315;48.738;9.126;2023-05-10T12:51:01;17.30;99.90
666;DHT22;315;48.738;9.126;2023-05-10T12:53:27;17.10;99.90
666;DHT22;315;48.738;9.126;2023-05-10T12:55:52;17.10;99.90
666;DHT22;315;48.738;9.126;2023-05-10T12:58:19;17.10;99.90
666;DHT22;315;48.738;9.126;2023-05-10T13:00:45;17.10;99.90
666;DHT22;315;48.738;9.126;2023-05-10T13:03:10;17.40;99.90
666;DHT22;315;48.738;9.126;2023-05-10T13:05:36;17.70;99.90
666;DHT22;315;48.738;9.126;2023-05-10T13:08:02;17.90;99.90
666;DHT22;315;48.738;9.126;2023-05-10T13:10:29;18.20;99.90
666;DHT22;315;48.738;9.126;2023-05-10T13:12:55;18.50;99.90
666;DHT22;315;48.738;9.126;2023-05-10T13:15:21;19.00;99.90
666;DHT22;315;48.738;9.126;2023-05-10T13:17:47;18.90;99.90
666;DHT22;315;48.738;9.126;2023-05-10T13:20:13;18.50;99.90
666;DHT22;315;48.738;9.126;2023-05-10T13:22:38;18.50;99.90
666;DHT22;315;48.738;9.126;2023-05-10T13:25:04;18.70;99.90
666;DHT22;315;48.738;9.126;2023-05-10T13:27:30;18.90;99.90
666;DHT22;315;48.738;9.126;2023-05-10T13:29:55;18.90;99.90
666;DHT22;315;48.738;9.126;2023-05-10T13:32:21;19.10;99.90
666;DHT22;315;48.738;9.126;2023-05-10T13:34:46;19.30;99.90
666;DHT22;315;48.738;9.126;2023-05-10T13:37:12;19.50;99.90
666;DHT22;315;48.738;9.126;2023-05-10T13:39:37;19.40;99.90
666;DHT22;315;48.738;9.126;2023-05-10T13:42:03;18.80;99.90
666;DHT22;315;48.738;9.126;2023-05-10T13:44:29;18.40;99.90
666;DHT22;315;48.738;9.126;2023-05-10T13:46:56;18.70;99.90
666;DHT22;315;48.738;9.126;2023-05-10T13:49:21;18.70;99.90
666;DHT22;315;48.738;9.126;2023-05-10T13:51:47;19.00;99.90
666;DHT22;315;48.738;9.126;2023-05-10T13:54:13;19.40;99.90
666;DHT22;315;48.738;9.126;2023-05-10T13:56:39;19.50;99.90
666;DHT22;315;48.738;9.126;2023-05-10T13:59:05;20.00;99.90
666;DHT22;315;48.738;9.126;2023-05-10T14:01:31;19.90;99.90
666;DHT22;315;48.738;9.126;2023-05-10T14:03:57;19.40;99.90
666;DHT22;315;48.738;9.126;2023-05-10T14:06:22;19.50;99.90
666;DHT22;315;48.738;9.126;2023-05-10T14:08:48;19.40;99.90
666;DHT22;315;48.738;9.126;2023-05-10T14:11:14;19.60;99.90
666;DHT22;315;48.738;9.126;2023-05-10T14:13:40;19.40;99.90
666;DHT22;315;48.738;9.126;2023-05-10T14:16:06;19.20;99.90
666;DHT22;315;48.738;9.126;2023-05-10T14:18:31;19.00;99.90
666;DHT22;315;48.738;9.126;2023-05-10T14:20:57;19.30;99.90
666;DHT22;315;48.738;9.126;2023-05-10T14:23:23;19.00;99.90
666;DHT22;315;48.738;9.126;2023-05-10T14:25:54;19.10;99.90
666;DHT22;315;48.738;9.126;2023-05-10T14:28:19;18.80;99.90
666;DHT22;315;48.738;9.126;2023-05-10T14:30:46;18.90;99.90
666;DHT22;315;48.738;9.126;2023-05-10T14:33:12;18.90;99.90
666;DHT22;315;48.738;9.126;2023-05-10T14:35:38;19.00;99.90
666;DHT22;315;48.738;9.126;2023-05-10T14:38:03;18.90;99.90
666;DHT22;315;48.738;9.126;2023-05-10T14:40:29;18.80;99.90
666;DHT22;315;48.738;9.126;2023-05-10T14:42:55;18.40;99.90
666;DHT22;315;48.738;9.126;2023-05-10T14:45:21;18.10;99.90
666;DHT22;315;48.738;9.126;2023-05-10T14:47:47;18.10;99.90
666;DHT22;315;48.738;9.126;2023-05-10T14:50:13;18.70;99.90
666;DHT22;315;48.738;9.126;2023-05-10T14:52:39;18.60;99.90
666;DHT22;315;48.738;9.126;2023-05-10T14:55:05;18.20;99.90
666;DHT22;315;48.738;9.126;2023-05-10T14:57:30;17.90;99.90
666;DHT22;315;48.738;9.126;2023-05-10T14:59:56;17.90;99.90
666;DHT22;315;48.738;9.126;2023-05-10T15:02:22;18.20;99.90
666;DHT22;315;48.738;9.126;2023-05-10T15:04:47;18.30;99.90
666;DHT22;315;48.738;9.126;2023-05-10T15:07:13;18.40;99.90
666;DHT22;315;48.738;9.126;2023-05-10T15:09:40;18.30;99.90
666;DHT22;315;48.738;9.126;2023-05-10T15:12:06;18.20;99.90
666;DHT22;315;48.738;9.126;2023-05-10T15:14:31;18.30;99.90
666;DHT22;315;48.738;9.126;2023-05-10T15:16:58;18.60;99.90
666;DHT22;315;48.738;9.126;2023-05-10T15:19:24;18.80;99.90
666;DHT22;315;48.738;9.126;2023-05-10T15:21:49;18.90;99.90
666;DHT22;315;48.738;9.126;2023-05-10T15:24:15;18.80;99.90
666;DHT22;315;48.738;9.126;2023-05-10T15:26:40;18.30;99.90
666;DHT22;315;48.738;9.126;2023-05-10T15:29:06;18.40;99.90
666;DHT22;315;48.738;9.126;2023-05-10T15:31:32;18.70;99.90
666;DHT22;315;48.738;9.126;2023-05-10T15:34:00;18.70;99.90
666;DHT22;315;48.738;9.126;2023-05-10T15:36:26;18.70;99.90
666;DHT22;315;48.738;9.126;2023-05-10T15:38:52;18.70;99.90
666;DHT22;315;48.738;9.126;2023-05-10T15:41:18;19.00;99.90
666;DHT22;315;48.738;9.126;2023-05-10T15:43:44;19.00;99.90
666;DHT22;315;48.738;9.126;2023-05-10T15:46:09;19.20;99.90
666;DHT22;315;48.738;9.126;2023-05-10T15:48:35;18.80;99.90
666;DHT22;315;48.738;9.126;2023-05-10T15:51:00;19.00;99.90
666;DHT22;315;48.738;9.126;2023-05-10T15:53:26;18.70;99.90
666;DHT22;315;48.738;9.126;2023-05-10T15:55:51;18.80;99.90
666;DHT22;315;48.738;9.126;2023-05-10T15:58:18;18.40;99.90
666;DHT22;315;48.738;9.126;2023-05-10T16:00:43;18.70;99.90
666;DHT22;315;48.738;9.126;2023-05-10T16:03:09;18.80;99.90
666;DHT22;315;48.738;9.126;2023-05-10T16:05:34;18.90;99.90
666;DHT22;315;48.738;9.126;2023-05-10T16:08:00;18.70;99.90
666;DHT22;315;48.738;9.126;2023-05-10T16:10:26;18.40;99.90
666;DHT22;315;48.738;9.126;2023-05-10T16:12:53;18.20;99.90
666;DHT22;315;48.738;9.126;2023-05-10T16:15:19;18.10;99.90
666;DHT22;315;48.738;9.126;2023-05-10T16:17:46;18.30;99.90
666;DHT22;315;48.738;9.126;2023-05-10T16:20:11;18.40;99.90
666;DHT22;315;48.738;9.126;2023-05-10T16:22:40;18.10;99.90
666;DHT22;315;48.738;9.126;2023-05-10T16:25:05;18.00;99.90
666;DHT22;315;48.738;9.126;2023-05-10T16:27:31;17.90;99.90
666;DHT22;315;48.738;9.126;2023-05-10T16:29:58;17.70;99.90
666;DHT22;315;48.738;9.126;2023-05-10T16:32:23;17.70;99.90
666;DHT22;315;48.738;9.126;2023-05-10T16:34:49;17.70;99.90
666;DHT22;315;48.738;9.126;2023-05-10T16:37:15;17.40;99.90
666;DHT22;315;48.738;9.126;2023-05-10T16:39:40;17.30;99.90
666;DHT22;315;48.738;9.126;2023-05-10T16:42:06;17.40;99.90
666;DHT22;315;48.738;9.126;2023-05-10T16:44:32;17.50;99.90
666;DHT22;315;48.738;9.126;2023-05-10T16:46:57;17.20;99.90
666;DHT22;315;48.738;9.126;2023-05-10T16:49:23;17.10;99.90
666;DHT22;315;48.738;9.126;2023-05-10T16:51:49;17.00;99.90
666;DHT22;315;48.738;9.126;2023-05-10T16:54:14;16.90;99.90
666;DHT22;315;48.738;9.126;2023-05-10T16:56:41;16.80;99.90
666;DHT22;315;48.738;9.126;2023-05-10T16:59:06;16.80;99.90
666;DHT22;315;48.738;9.126;2023-05-10T17:01:32;16.80;99.90